Time;durP1;ratioP1;P1;durP2;ratioP2;P2;SDS_P1;SDS_P2;PMS_P1;PMS_P2;Temp;Humidity;BMP_temperature;BMP_pressure;BME280_temperature;BME280_humidity;BME280_pressure;Samples;Min_cycle;Max_cycle;Signal;HPM_P1;HPM_P2
2021/04/18 00:00:39;;;;;;;10.30;4.30;;;4.20;88.50;;;;;;4952776;28;20023;-86
2021/04/18 00:03:04;;;;;;;13.98;5.05;;;4.20;88.70;;;;;;4953949;28;20435;-85
2021/04/18 00:05:30;;;;;;;11.90;4.25;;;4.20;88.90;;;;;;4952706;28;20032;-85
2021/04/18 00:08:02;;;;;;;13.43;3.90;;;4.20;88.90;;;;;;4955672;29;20089;-85
2021/04/18 00:10:36;;;;;;;13.40;4.57;;;4.10;89.00;;;;;;4952368;29;20024;-85
2021/04/18 00:13:03;;;;;;;10.70;3.95;;;4.10;89.10;;;;;;4954194;29;20036;-85
2021/04/18 00:15:29;;;;;;;11.05;4.47;;;4.10;89.40;;;;;;4955618;28;20039;-85
2021/04/18 00:17:55;;;;;;;14.27;5.22;;;4.10;89.60;;;;;;4954029;28;20391;-85
2021/04/18 00:20:20;;;;;;;14.02;5.35;;;4.10;89.80;;;;;;4951593;28;20027;-85
2021/04/18 00:22:46;;;;;;;15.45;4.75;;;4.10;89.90;;;;;;4950004;28;20078;-85
2021/04/18 00:25:13;;;;;;;12.80;5.05;;;4.10;90.30;;;;;;4946246;29;20032;-85
2021/04/18 00:27:39;;;;;;;14.25;5.60;;;4.00;90.00;;;;;;4951967;29;20035;-86
2021/04/18 00:30:10;;;;;;;12.73;5.55;;;4.00;90.00;;;;;;4955292;29;20031;-85
2021/04/18 00:32:37;;;;;;;10.55;5.60;;;3.90;90.10;;;;;;4950712;28;20042;-85
2021/04/18 00:35:04;;;;;;;14.23;5.20;;;3.90;90.30;;;;;;4954864;28;20027;-85
2021/04/18 00:37:29;;;;;;;12.00;4.65;;;3.80;90.30;;;;;;4954011;29;20038;-85
2021/04/18 00:39:55;;;;;;;9.07;4.05;;;3.80;90.40;;;;;;4954524;28;20051;-85
2021/04/18 00:42:21;;;;;;;14.25;4.22;;;3.80;90.40;;;;;;4952083;29;20031;-86
2021/04/18 00:44:46;;;;;;;10.95;4.55;;;3.70;90.40;;;;;;4953391;28;20091;-86
2021/04/18 00:47:12;;;;;;;16.70;4.70;;;3.70;90.60;;;;;;4953495;29;20045;-86
2021/04/18 00:49:38;;;;;;;10.10;4.03;;;3.60;90.60;;;;;;4946596;29;20038;-86
2021/04/18 00:52:05;;;;;;;12.40;4.53;;;3.60;90.60;;;;;;4953470;28;20026;-85
2021/04/18 00:54:31;;;;;;;19.00;6.45;;;3.50;90.70;;;;;;4954358;29;20035;-85
2021/04/18 00:56:57;;;;;;;12.82;4.25;;;3.40;90.80;;;;;;4952740;28;20028;-86
2021/04/18 00:59:22;;;;;;;10.63;5.10;;;3.40;90.90;;;;;;4953537;28;20034;-85
2021/04/18 01:01:48;;;;;;;10.98;4.97;;;3.40;90.90;;;;;;4953231;29;20505;-85
2021/04/18 01:04:13;;;;;;;11.18;4.38;;;3.30;90.80;;;;;;4942967;28;20122;-85
2021/04/18 01:06:39;;;;;;;8.90;4.38;;;3.20;90.90;;;;;;4942216;28;20050;-86
2021/04/18 01:09:05;;;;;;;14.43;4.53;;;3.20;90.90;;;;;;4952366;29;20487;-85
2021/04/18 01:11:30;;;;;;;17.65;5.68;;;3.10;90.90;;;;;;4954630;28;20554;-85
2021/04/18 01:13:56;;;;;;;13.68;4.30;;;3.00;91.00;;;;;;4953596;28;20454;-85
2021/04/18 01:16:22;;;;;;;11.00;4.80;;;3.00;91.10;;;;;;4953496;28;20089;-85
2021/04/18 01:18:47;;;;;;;12.10;4.95;;;2.90;91.20;;;;;;4945207;28;20051;-85
2021/04/18 01:21:13;;;;;;;11.55;5.15;;;2.90;91.20;;;;;;4950613;28;20038;-85
2021/04/18 01:23:40;;;;;;;14.07;4.65;;;2.90;91.30;;;;;;4954534;28;20061;-85
2021/04/18 01:26:05;;;;;;;12.63;4.85;;;2.80;91.40;;;;;;4951499;29;20070;-85
2021/04/18 01:28:34;;;;;;;11.52;5.20;;;2.70;91.30;;;;;;4958997;28;20438;-85
2021/04/18 01:31:04;;;;;;;10.90;4.65;;;2.60;91.40;;;;;;4955495;28;20486;-85
2021/04/18 01:33:30;;;;;;;15.13;5.28;;;2.60;91.50;;;;;;4956016;28;20462;-85
2021/04/18 01:35:56;;;;;;;12.88;6.00;;;2.50;91.60;;;;;;4953067;28;20126;-85
2021/04/18 01:38:22;;;;;;;13.13;5.20;;;2.50;91.70;;;;;;4953303;28;20034;-85
2021/04/18 01:40:48;;;;;;;14.80;6.43;;;2.50;91.70;;;;;;4958257;28;20480;-84
2021/04/18 01:43:15;;;;;;;13.70;5.70;;;2.50;91.80;;;;;;4956776;28;20380;-85
2021/04/18 01:45:42;;;;;;;15.20;5.68;;;2.50;91.80;;;;;;4945157;28;20495;-85
2021/04/18 01:48:09;;;;;;;9.75;4.28;;;2.50;91.80;;;;;;4954633;28;20084;-85
2021/04/18 01:50:42;;;;;;;14.48;4.72;;;2.40;91.80;;;;;;4950908;28;20023;-85
2021/04/18 01:53:09;;;;;;;13.88;5.45;;;2.30;91.80;;;;;;4949380;28;20102;-85
2021/04/18 01:55:35;;;;;;;14.80;4.57;;;2.30;91.90;;;;;;4952292;28;20054;-85
2021/04/18 01:58:01;;;;;;;14.35;5.82;;;2.20;92.00;;;;;;4966496;28;20034;-84
2021/04/18 02:00:27;;;;;;;13.40;5.50;;;2.30;92.10;;;;;;4957835;28;20031;-84
2021/04/18 02:02:52;;;;;;;15.95;6.20;;;2.30;92.20;;;;;;4951893;28;20396;-85
2021/04/18 02:05:18;;;;;;;13.02;6.03;;;2.30;92.20;;;;;;4949698;28;20083;-85
2021/04/18 02:07:44;;;;;;;14.57;5.55;;;2.30;92.20;;;;;;4951454;28;20039;-84
2021/04/18 02:10:11;;;;;;;16.40;5.88;;;2.30;92.20;;;;;;4960181;28;20086;-85
2021/04/18 02:12:36;;;;;;;11.50;4.97;;;2.20;92.20;;;;;;4953665;28;20031;-84
2021/04/18 02:15:03;;;;;;;17.95;5.97;;;2.20;92.20;;;;;;4959201;28;20074;-85
2021/04/18 02:17:29;;;;;;;15.85;6.18;;;2.20;92.20;;;;;;4947436;28;20071;-84
2021/04/18 02:19:54;;;;;;;10.85;5.20;;;2.20;92.30;;;;;;4951852;28;20058;-85
2021/04/18 02:22:20;;;;;;;17.35;5.90;;;2.20;92.30;;;;;;4952706;29;20126;-85
2021/04/18 02:24:45;;;;;;;18.88;5.63;;;2.10;92.30;;;;;;4958116;28;20109;-85
2021/04/18 02:27:11;;;;;;;10.80;5.78;;;2.10;92.30;;;;;;4953689;28;20035;-85
2021/04/18 02:29:36;;;;;;;14.15;6.22;;;2.10;92.40;;;;;;4955010;28;20039;-85
2021/04/18 02:32:02;;;;;;;12.02;5.60;;;2.00;92.40;;;;;;4951894;28;20106;-85
2021/04/18 02:34:28;;;;;;;17.13;6.40;;;2.00;92.50;;;;;;4951808;28;20028;-85
2021/04/18 02:36:53;;;;;;;11.10;5.82;;;2.00;92.50;;;;;;4952882;29;20027;-85
2021/04/18 02:39:19;;;;;;;12.60;5.20;;;2.00;92.60;;;;;;4952181;28;20042;-85
2021/04/18 02:41:44;;;;;;;13.20;5.78;;;2.00;92.70;;;;;;4953576;29;20067;-85
2021/04/18 02:44:10;;;;;;;13.55;5.88;;;2.10;92.70;;;;;;4958645;28;20089;-85
2021/04/18 02:46:35;;;;;;;12.88;5.05;;;2.10;92.70;;;;;;4950691;28;20024;-85
2021/04/18 02:49:02;;;;;;;14.35;6.00;;;2.10;93.00;;;;;;4949250;28;20031;-86
2021/04/18 02:51:29;;;;;;;12.68;5.40;;;2.10;92.70;;;;;;4966510;28;20062;-85
2021/04/18 02:53:58;;;;;;;14.98;5.47;;;2.00;92.70;;;;;;4944747;28;20450;-85
2021/04/18 02:56:24;;;;;;;10.82;5.53;;;2.00;92.70;;;;;;4961271;28;20024;-85
2021/04/18 02:58:49;;;;;;;12.02;6.30;;;2.00;92.80;;;;;;4952469;28;20023;-86
2021/04/18 03:01:15;;;;;;;13.35;6.70;;;1.90;92.80;;;;;;4952402;28;20034;-85
2021/04/18 03:03:40;;;;;;;11.15;4.55;;;1.90;92.80;;;;;;4949242;28;20487;-85
2021/04/18 03:06:06;;;;;;;17.48;6.47;;;1.80;92.90;;;;;;4957587;28;20046;-85
2021/04/18 03:08:31;;;;;;;14.68;6.70;;;1.80;92.90;;;;;;4957188;29;20098;-85
2021/04/18 03:10:57;;;;;;;15.70;6.55;;;1.80;93.00;;;;;;4960838;28;20546;-85
2021/04/18 03:13:22;;;;;;;14.25;6.82;;;1.70;93.00;;;;;;4948053;28;20050;-86
2021/04/18 03:15:48;;;;;;;19.75;7.63;;;1.70;93.10;;;;;;4959151;28;20031;-86
2021/04/18 03:18:13;;;;;;;16.23;7.15;;;1.70;93.10;;;;;;4955906;29;20035;-86
2021/04/18 03:20:39;;;;;;;17.23;7.20;;;1.70;93.20;;;;;;4953318;28;20059;-86
2021/04/18 03:23:04;;;;;;;17.10;7.22;;;1.80;93.30;;;;;;4956163;29;20117;-85
2021/04/18 03:25:30;;;;;;;13.38;7.30;;;1.80;93.20;;;;;;4960611;28;20030;-85
2021/04/18 03:27:56;;;;;;;16.92;7.53;;;1.90;93.30;;;;;;4948112;28;20134;-86
2021/04/18 03:30:22;;;;;;;12.80;6.43;;;1.90;93.20;;;;;;4959184;28;20030;-86
2021/04/18 03:32:47;;;;;;;15.52;5.90;;;1.90;93.20;;;;;;4955208;28;20031;-86
2021/04/18 03:35:14;;;;;;;12.57;5.78;;;1.90;93.20;;;;;;4955654;28;20063;-86
2021/04/18 03:37:40;;;;;;;17.58;7.03;;;1.90;93.20;;;;;;4953228;28;20062;-86
2021/04/18 03:40:06;;;;;;;13.23;6.63;;;1.90;93.20;;;;;;4970151;28;20091;-86
2021/04/18 03:42:32;;;;;;;14.52;7.05;;;1.90;93.20;;;;;;4955984;29;20518;-86
2021/04/18 03:44:57;;;;;;;14.00;5.95;;;1.90;93.30;;;;;;4955564;28;20094;-86
2021/04/18 03:47:23;;;;;;;15.55;6.00;;;1.90;93.30;;;;;;4952414;28;20054;-86
2021/04/18 03:49:48;;;;;;;12.30;6.10;;;1.90;93.30;;;;;;4958140;28;20093;-86
2021/04/18 03:52:14;;;;;;;14.57;6.00;;;1.80;93.40;;;;;;4954721;28;20535;-86
2021/04/18 03:54:39;;;;;;;16.73;6.75;;;1.80;93.50;;;;;;4955381;29;20031;-87
2021/04/18 03:57:05;;;;;;;15.30;6.40;;;1.80;93.40;;;;;;4973204;28;20034;-87
2021/04/18 03:59:30;;;;;;;18.25;6.65;;;1.80;93.50;;;;;;4955271;28;20035;-87
2021/04/18 04:01:56;;;;;;;15.10;6.60;;;1.90;93.60;;;;;;4947568;28;20038;-86
2021/04/18 04:04:21;;;;;;;19.63;6.80;;;1.80;93.50;;;;;;4954440;28;20505;-86
2021/04/18 04:06:47;;;;;;;16.45;6.78;;;1.80;93.50;;;;;;4953024;28;20028;-87
2021/04/18 04:09:12;;;;;;;14.48;6.22;;;1.80;93.50;;;;;;4954591;28;20167;-86
2021/04/18 04:11:38;;;;;;;12.73;5.15;;;1.80;93.70;;;;;;4949776;28;20034;-86
2021/04/18 04:14:03;;;;;;;14.52;5.70;;;1.80;93.70;;;;;;4952272;28;20483;-86
2021/04/18 04:16:29;;;;;;;12.70;5.22;;;1.70;93.70;;;;;;4951282;28;20078;-86
2021/04/18 04:18:56;;;;;;;15.20;5.35;;;1.70;93.70;;;;;;4949164;28;20462;-86
2021/04/18 04:21:22;;;;;;;11.77;5.13;;;1.70;94.00;;;;;;4952785;28;20032;-86
2021/04/18 04:23:47;;;;;;;14.27;5.38;;;1.70;93.70;;;;;;4942336;29;20023;-86
2021/04/18 04:26:13;;;;;;;16.50;5.68;;;1.70;93.70;;;;;;4946462;28;20027;-86
2021/04/18 04:28:39;;;;;;;12.25;5.65;;;1.60;93.70;;;;;;4951110;29;20487;-86
2021/04/18 04:31:04;;;;;;;16.88;5.72;;;1.60;93.80;;;;;;4940505;29;20353;-86
2021/04/18 04:33:37;;;;;;;16.85;6.15;;;1.60;93.90;;;;;;4949326;29;20028;-87
2021/04/18 04:36:03;;;;;;;;;;;1.70;93.90;;;;;;4948653;28;20038;-86
2021/04/18 04:38:29;;;;;;;14.05;5.85;;;1.70;93.80;;;;;;4949284;28;19960;-86
2021/04/18 04:40:55;;;;;;;12.77;5.93;;;1.70;93.80;;;;;;4948428;29;20760;-86
2021/04/18 04:43:20;;;;;;;13.55;5.97;;;1.60;93.80;;;;;;4946469;29;20122;-87
2021/04/18 04:45:46;;;;;;;12.48;5.85;;;1.60;93.80;;;;;;4944835;29;20023;-87
2021/04/18 04:48:11;;;;;;;10.48;5.20;;;1.60;93.80;;;;;;4947571;29;20046;-87
2021/04/18 04:50:37;;;;;;;17.23;6.00;;;1.60;93.90;;;;;;4945129;29;20027;-87
2021/04/18 04:53:03;;;;;;;15.80;6.38;;;1.50;93.90;;;;;;4947153;29;20038;-87
2021/04/18 04:55:28;;;;;;;11.77;5.60;;;1.50;94.00;;;;;;4949038;29;20027;-87
2021/04/18 04:57:54;;;;;;;9.85;4.80;;;1.40;94.00;;;;;;4949641;29;20028;-86
2021/04/18 05:00:20;;;;;;;19.50;5.95;;;1.40;94.00;;;;;;4950178;29;20031;-87
2021/04/18 05:02:45;;;;;;;11.25;5.35;;;1.40;94.00;;;;;;4948768;29;20027;-87
2021/04/18 05:05:12;;;;;;;10.68;5.13;;;1.40;94.10;;;;;;4945076;29;20035;-87
2021/04/18 05:07:38;;;;;;;12.90;5.00;;;1.40;94.10;;;;;;4959253;28;20067;-87
2021/04/18 05:10:04;;;;;;;7.20;4.38;;;1.30;94.20;;;;;;4945056;29;20483;-87
2021/04/18 05:12:30;;;;;;;11.43;5.25;;;1.30;94.20;;;;;;4945861;29;20027;-87
2021/04/18 05:14:55;;;;;;;15.70;4.63;;;1.30;94.20;;;;;;4945181;29;20042;-87
2021/04/18 05:17:21;;;;;;;9.90;5.13;;;1.40;94.30;;;;;;4952625;28;20119;-87
2021/04/18 05:19:46;;;;;;;9.32;5.13;;;1.40;94.20;;;;;;4955814;28;20026;-86
2021/04/18 05:22:12;;;;;;;10.43;4.97;;;1.40;94.20;;;;;;4947190;28;20484;-87
2021/04/18 05:24:37;;;;;;;13.10;5.18;;;1.40;94.20;;;;;;4957963;28;20027;-87
2021/04/18 05:27:03;;;;;;;12.68;5.35;;;1.50;94.20;;;;;;4969620;28;20136;-86
2021/04/18 05:29:29;;;;;;;15.13;5.35;;;1.50;94.20;;;;;;4941988;28;20035;-87
2021/04/18 05:31:55;;;;;;;10.23;4.72;;;1.60;94.20;;;;;;4952768;29;20042;-87
2021/04/18 05:34:21;;;;;;;12.32;6.00;;;1.60;94.20;;;;;;4945290;29;20051;-86
2021/04/18 05:36:47;;;;;;;11.80;7.15;;;1.70;94.20;;;;;;4949835;28;20027;-87
2021/04/18 05:39:12;;;;;;;15.55;6.75;;;1.80;94.30;;;;;;4953928;29;20065;-87
2021/04/18 05:41:38;;;;;;;15.70;7.50;;;1.80;94.30;;;;;;4952264;28;20031;-86
2021/04/18 05:44:13;;;;;;;18.60;8.32;;;2.00;94.30;;;;;;4948377;29;20035;-87
2021/04/18 05:46:40;;;;;;;20.67;7.57;;;2.10;94.30;;;;;;4944360;29;20031;-87
2021/04/18 05:49:05;;;;;;;14.93;6.22;;;2.20;94.30;;;;;;4952454;28;20139;-86
2021/04/18 05:51:30;;;;;;;13.98;6.72;;;2.30;94.30;;;;;;4949784;28;20109;-86
2021/04/18 05:53:56;;;;;;;13.07;5.63;;;2.40;94.20;;;;;;4950875;29;20041;-86
2021/04/18 05:56:21;;;;;;;7.20;3.83;;;2.50;94.20;;;;;;4942535;28;20035;-86
2021/04/18 05:58:47;;;;;;;8.93;3.97;;;2.50;94.10;;;;;;4945198;29;20023;-87
2021/04/18 06:01:12;;;;;;;12.57;3.40;;;2.60;94.00;;;;;;4949003;29;20118;-87
2021/04/18 06:03:38;;;;;;;13.98;4.90;;;2.60;94.00;;;;;;4948667;29;20126;-87
2021/04/18 06:06:04;;;;;;;9.88;4.90;;;2.70;94.10;;;;;;4954589;29;20126;-86
2021/04/18 06:08:30;;;;;;;16.83;5.85;;;2.80;94.10;;;;;;4943983;29;20039;-87
2021/04/18 06:10:56;;;;;;;15.15;6.50;;;2.90;94.00;;;;;;4947437;29;20082;-87
2021/04/18 06:13:21;;;;;;;21.63;8.07;;;3.00;94.00;;;;;;4953539;29;20031;-87
2021/04/18 06:15:47;;;;;;;21.60;8.70;;;3.20;94.20;;;;;;4949978;29;20153;-86
2021/04/18 06:18:13;;;;;;;16.27;8.15;;;3.30;94.20;;;;;;4954251;28;20031;-87
2021/04/18 06:20:39;;;;;;;21.25;8.52;;;3.50;94.20;;;;;;4946992;29;20030;-87
2021/04/18 06:23:05;;;;;;;17.80;6.85;;;3.70;94.10;;;;;;4950417;29;20039;-88
2021/04/18 06:25:30;;;;;;;22.17;8.55;;;3.80;94.00;;;;;;4939999;29;20028;-88
2021/04/18 06:27:56;;;;;;;25.83;9.02;;;3.90;93.90;;;;;;4949040;29;20529;-87
2021/04/18 06:30:22;;;;;;;34.95;9.40;;;4.00;94.10;;;;;;4942821;29;20102;-87
2021/04/18 06:32:47;;;;;;;73.38;13.10;;;4.00;93.90;;;;;;4950192;29;20407;-88
2021/04/18 06:35:13;;;;;;;44.65;10.63;;;4.10;93.90;;;;;;4946806;28;20027;-86
2021/04/18 06:37:39;;;;;;;42.92;10.02;;;4.10;93.90;;;;;;4952133;28;20440;-87
2021/04/18 06:40:06;;;;;;;195.43;17.83;;;4.30;94.00;;;;;;4939841;29;20039;-87
2021/04/18 06:42:36;;;;;;;31.20;10.07;;;4.50;93.90;;;;;;4957547;29;20023;-88
2021/04/18 06:45:03;;;;;;;40.05;9.75;;;4.60;93.90;;;;;;4956744;29;20034;-87
2021/04/18 06:47:30;;;;;;;45.20;9.57;;;4.70;93.90;;;;;;4951902;29;20043;-87
2021/04/18 06:49:58;;;;;;;86.85;13.43;;;4.90;93.60;;;;;;4951520;29;20032;-87
2021/04/18 06:52:24;;;;;;;67.82;13.77;;;4.80;93.40;;;;;;4953763;29;20452;-87
2021/04/18 06:54:50;;;;;;;34.65;9.32;;;4.80;93.40;;;;;;4968141;28;20023;-87
2021/04/18 06:57:15;;;;;;;59.00;12.02;;;4.80;93.70;;;;;;4955980;29;20032;-87
2021/04/18 06:59:41;;;;;;;53.85;12.73;;;4.90;93.60;;;;;;4954249;28;20028;-87
2021/04/18 07:02:07;;;;;;;25.50;10.20;;;4.90;93.60;;;;;;4951991;28;20029;-87
2021/04/18 07:04:33;;;;;;;45.97;12.02;;;4.90;93.70;;;;;;4951754;29;20028;-87
2021/04/18 07:06:59;;;;;;;32.35;12.38;;;4.90;93.70;;;;;;4956163;28;20031;-87
2021/04/18 07:09:25;;;;;;;47.65;13.88;;;4.90;93.70;;;;;;4956121;29;20027;-88
2021/04/18 07:11:56;;;;;;;68.30;14.27;;;4.90;93.90;;;;;;4955088;29;20031;-86
2021/04/18 07:14:21;;;;;;;24.33;10.82;;;5.00;93.90;;;;;;4952811;28;20042;-87
2021/04/18 07:16:47;;;;;;;68.90;14.80;;;5.10;94.00;;;;;;4955501;29;20035;-87
2021/04/18 07:19:23;;;;;;;28.42;12.73;;;5.20;94.00;;;;;;4953683;28;20035;-88
2021/04/18 07:21:51;;;;;;;27.05;14.02;;;5.30;93.90;;;;;;4949993;29;20030;-87
2021/04/18 07:24:19;;;;;;;26.17;13.55;;;5.50;93.90;;;;;;4957526;29;20479;-87
2021/04/18 07:26:55;;;;;;;20.65;10.48;;;5.60;93.80;;;;;;4948351;28;20041;-87
2021/04/18 07:29:21;;;;;;;12.98;8.98;;;5.70;93.80;;;;;;4952969;29;20073;-86
2021/04/18 07:31:49;;;;;;;27.15;10.10;;;5.80;93.70;;;;;;4952148;28;20055;-88
2021/04/18 07:34:23;;;;;;;25.60;12.77;;;5.90;93.60;;;;;;4954997;29;20058;-87
2021/04/18 07:37:04;;;;;;;19.67;10.55;;;5.90;93.70;;;;;;4948727;29;20023;-87
2021/04/18 07:40:04;;;;;;;22.75;11.10;;;6.00;93.70;;;;;;4956255;29;20043;-88
2021/04/18 07:42:36;;;;;;;16.98;10.38;;;6.10;93.80;;;;;;4954656;29;20514;-87
2021/04/18 07:45:15;;;;;;;23.08;11.48;;;6.30;93.60;;;;;;4953587;29;20058;-88
2021/04/18 07:47:44;;;;;;;21.63;11.95;;;6.40;93.50;;;;;;4954476;29;20086;-88
2021/04/18 07:50:10;;;;;;;19.88;10.23;;;6.50;93.30;;;;;;4954399;28;20027;-87
2021/04/18 07:52:40;;;;;;;19.80;11.50;;;6.50;93.30;;;;;;4956004;29;20565;-87
2021/04/18 07:55:07;;;;;;;18.60;10.07;;;6.50;93.10;;;;;;4954180;29;20050;-88
2021/04/18 07:57:32;;;;;;;14.90;10.43;;;6.50;93.20;;;;;;4942165;29;20023;-88
2021/04/18 07:59:59;;;;;;;16.52;10.68;;;6.60;93.40;;;;;;4948269;29;20665;-88
2021/04/18 08:02:25;;;;;;;21.13;12.73;;;6.70;93.30;;;;;;4944084;28;20140;-85
2021/04/18 08:04:54;;;;;;;18.20;12.18;;;6.90;93.40;;;;;;4955423;29;20090;-87
2021/04/18 08:07:21;;;;;;;20.92;11.25;;;7.00;93.20;;;;;;4953545;29;20130;-87
2021/04/18 08:09:46;;;;;;;18.17;10.98;;;7.20;93.00;;;;;;4956000;29;20456;-87
2021/04/18 08:12:17;;;;;;;15.52;9.32;;;7.20;92.60;;;;;;4951144;28;20058;-87
2021/04/18 08:15:09;;;;;;;18.38;10.63;;;7.20;92.60;;;;;;4948745;29;20032;-87
2021/04/18 08:18:02;;;;;;;16.77;9.87;;;7.10;92.60;;;;;;4954201;29;20035;-86
2021/04/18 08:20:33;;;;;;;17.02;10.55;;;7.20;92.70;;;;;;4945057;29;20107;-87
2021/04/18 08:23:17;;;;;;;15.38;9.05;;;7.40;92.80;;;;;;4952589;28;20521;-87
2021/04/18 08:26:09;;;;;;;15.77;9.88;;;7.50;92.50;;;;;;4954559;29;20031;-87
2021/04/18 08:28:53;;;;;;;18.05;11.18;;;7.40;92.40;;;;;;4956077;29;20035;-87
2021/04/18 08:31:29;;;;;;;15.32;8.57;;;7.40;92.60;;;;;;4953380;29;20373;-87
2021/04/18 08:33:56;;;;;;;15.55;10.43;;;7.40;92.80;;;;;;4957952;28;20396;-86
2021/04/18 08:36:29;;;;;;;17.73;9.90;;;7.50;92.90;;;;;;4947462;28;20428;-86
2021/04/18 08:39:07;;;;;;;19.30;9.63;;;7.60;92.70;;;;;;4942885;28;20047;-86
2021/04/18 08:41:42;;;;;;;21.60;11.75;;;7.70;92.60;;;;;;4945024;29;20162;-87
2021/04/18 08:44:20;;;;;;;17.13;9.95;;;7.80;92.50;;;;;;4955270;29;20091;-86
2021/04/18 08:46:47;;;;;;;11.98;9.45;;;8.00;92.50;;;;;;4954456;29;20400;-87
2021/04/18 08:49:29;;;;;;;14.38;9.23;;;8.10;92.40;;;;;;4956337;29;20037;-87
2021/04/18 08:51:55;;;;;;;14.70;8.82;;;8.30;92.00;;;;;;4954793;28;20027;-87
2021/04/18 08:54:25;;;;;;;17.52;10.07;;;8.30;91.70;;;;;;4953486;29;20113;-87
2021/04/18 08:56:58;;;;;;;11.93;7.90;;;8.40;91.80;;;;;;4963893;28;20460;-87
2021/04/18 08:59:24;;;;;;;14.32;8.98;;;8.60;91.80;;;;;;4953370;28;20456;-87
2021/04/18 09:01:54;;;;;;;13.57;6.10;;;8.70;91.40;;;;;;4947486;28;20046;-87
2021/04/18 09:04:22;;;;;;;8.82;6.15;;;8.90;91.10;;;;;;4948239;29;20111;-87
2021/04/18 09:06:48;;;;;;;10.43;6.38;;;9.00;90.60;;;;;;4952996;28;20023;-87
2021/04/18 09:09:15;;;;;;;11.02;7.20;;;9.20;90.40;;;;;;4952896;28;20492;-87
2021/04/18 09:11:44;;;;;;;13.82;8.18;;;9.30;90.10;;;;;;4956561;28;20027;-87
2021/04/18 09:14:10;;;;;;;16.45;8.48;;;9.40;90.00;;;;;;4951109;28;20035;-87
2021/04/18 09:16:38;;;;;;;10.93;5.57;;;9.40;89.70;;;;;;4950569;28;20074;-87
2021/04/18 09:19:31;;;;;;;11.38;8.02;;;9.50;88.10;;;;;;4948860;28;20042;-87
2021/04/18 09:22:06;;;;;;;14.02;7.88;;;9.60;87.70;;;;;;4942334;28;20031;-85
2021/04/18 09:24:46;;;;;;;14.43;7.60;;;9.60;88.00;;;;;;4942359;28;20031;-87
2021/04/18 09:27:17;;;;;;;17.92;8.02;;;9.80;87.80;;;;;;4947374;28;20042;-87
2021/04/18 09:30:09;;;;;;;15.90;9.10;;;9.90;86.40;;;;;;4945530;28;20118;-85
2021/04/18 09:32:40;;;;;;;12.77;7.43;;;9.90;86.10;;;;;;4942223;28;20031;-87
2021/04/18 09:35:07;;;;;;;9.77;6.60;;;10.00;85.00;;;;;;4948978;28;20478;-87
2021/04/18 09:37:35;;;;;;;11.23;7.22;;;10.00;84.00;;;;;;4943344;28;20134;-86
2021/04/18 09:40:05;;;;;;;11.90;6.97;;;10.10;83.20;;;;;;4942217;28;20047;-87
2021/04/18 09:42:34;;;;;;;12.52;6.32;;;10.20;83.00;;;;;;4944158;28;20032;-84
2021/04/18 09:45:12;;;;;;;9.95;5.32;;;10.30;82.20;;;;;;4940673;28;20118;-87
2021/04/18 09:47:39;;;;;;;9.48;4.30;;;10.40;78.80;;;;;;4943199;28;20066;-87
2021/04/18 09:50:14;;;;;;;11.95;5.63;;;10.40;77.70;;;;;;4938811;28;20024;-87
2021/04/18 09:52:40;;;;;;;11.85;6.70;;;10.50;77.70;;;;;;4941071;28;20050;-87
2021/04/18 09:55:28;;;;;;;12.55;5.78;;;10.60;77.60;;;;;;4947033;28;20036;-87
2021/04/18 09:57:55;;;;;;;8.80;4.47;;;10.80;77.00;;;;;;4944195;28;20042;-87
2021/04/18 10:00:30;;;;;;;9.98;4.85;;;10.90;74.80;;;;;;4943576;28;20058;-85
2021/04/18 10:03:02;;;;;;;7.93;4.95;;;10.90;74.70;;;;;;4939097;28;20046;-85
2021/04/18 10:05:30;;;;;;;6.43;4.15;;;11.10;76.30;;;;;;4952432;28;20487;-86
2021/04/18 10:08:19;;;;;;;8.18;4.15;;;11.20;75.10;;;;;;4942862;28;20119;-86
2021/04/18 10:10:54;;;;;;;7.88;4.20;;;11.30;73.30;;;;;;4942515;28;20376;-85
2021/04/18 10:13:49;;;;;;;9.48;4.53;;;11.30;73.10;;;;;;4942975;28;20087;-85
2021/04/18 10:16:16;;;;;;;9.15;4.50;;;11.40;73.50;;;;;;4944480;28;20029;-85
2021/04/18 10:19:03;;;;;;;8.20;4.50;;;11.30;72.50;;;;;;4940752;28;20130;-86
2021/04/18 10:21:29;;;;;;;6.00;3.67;;;11.40;72.60;;;;;;4938465;28;20035;-85
2021/04/18 10:23:55;;;;;;;7.90;3.83;;;11.30;72.70;;;;;;4940081;28;20042;-84
2021/04/18 10:26:22;;;;;;;9.60;4.30;;;11.40;71.60;;;;;;4941114;28;20035;-85
2021/04/18 10:28:50;;;;;;;9.20;4.95;;;11.50;71.20;;;;;;4935242;28;20050;-84
2021/04/18 10:31:17;;;;;;;7.85;4.15;;;11.40;70.10;;;;;;4936509;28;20077;-85
2021/04/18 10:33:43;;;;;;;8.73;4.43;;;11.50;71.80;;;;;;4941560;28;20035;-85
2021/04/18 10:36:09;;;;;;;6.00;4.38;;;11.80;72.00;;;;;;4937758;28;20074;-86
2021/04/18 10:38:35;;;;;;;7.53;4.10;;;12.10;72.10;;;;;;4938200;28;20032;-83
2021/04/18 10:41:01;;;;;;;7.72;3.90;;;12.40;71.50;;;;;;4941339;28;20066;-86
2021/04/18 10:43:26;;;;;;;7.65;4.13;;;12.70;71.80;;;;;;4939690;28;20050;-88
2021/04/18 10:45:52;;;;;;;12.60;4.65;;;13.10;69.40;;;;;;4942874;28;20114;-88
2021/04/18 10:48:18;;;;;;;10.50;4.60;;;13.20;67.50;;;;;;4941749;28;20147;-86
2021/04/18 10:50:45;;;;;;;8.52;4.60;;;13.30;68.40;;;;;;4945957;28;20086;-87
2021/04/18 10:53:11;;;;;;;7.90;4.90;;;13.30;68.20;;;;;;4944247;28;20063;-87
2021/04/18 10:55:37;;;;;;;12.88;5.25;;;13.30;67.70;;;;;;4946649;28;20035;-87
2021/04/18 10:58:02;;;;;;;9.52;5.55;;;13.30;67.90;;;;;;4948755;28;20030;-87
2021/04/18 11:00:28;;;;;;;9.82;4.88;;;13.30;67.20;;;;;;4947784;28;20031;-86
2021/04/18 11:02:55;;;;;;;8.18;4.78;;;13.20;67.60;;;;;;4946442;28;20055;-85
2021/04/18 11:05:20;;;;;;;7.28;3.92;;;13.20;68.30;;;;;;4947375;28;20054;-86
2021/04/18 11:07:46;;;;;;;7.05;4.00;;;13.30;67.60;;;;;;4943000;28;20067;-86
2021/04/18 11:10:12;;;;;;;7.78;4.10;;;13.30;66.00;;;;;;4943215;28;20046;-86
2021/04/18 11:12:41;;;;;;;9.95;4.13;;;13.40;65.00;;;;;;4946364;28;21876;-85
2021/04/18 11:15:11;;;;;;;7.68;4.70;;;13.40;64.10;;;;;;4943213;28;20125;-86
2021/04/18 11:17:37;;;;;;;7.53;3.58;;;13.40;65.20;;;;;;4946543;28;20062;-85
2021/04/18 11:20:06;;;;;;;4.95;2.83;;;13.50;65.20;;;;;;4948678;28;20031;-86
2021/04/18 11:22:32;;;;;;;6.45;2.50;;;13.60;63.10;;;;;;4946349;28;20023;-86
2021/04/18 11:24:59;;;;;;;7.05;3.70;;;13.50;60.90;;;;;;4942612;28;20403;-86
2021/04/18 11:27:26;;;;;;;7.13;3.30;;;13.60;62.30;;;;;;4942941;28;20079;-86
2021/04/18 11:29:52;;;;;;;6.80;3.60;;;13.50;61.90;;;;;;4955693;28;20117;-85
2021/04/18 11:32:19;;;;;;;7.53;3.80;;;13.50;62.60;;;;;;4937875;28;20039;-86
2021/04/18 11:34:44;;;;;;;6.22;3.03;;;13.50;63.30;;;;;;4935837;28;20046;-86
2021/04/18 11:37:10;;;;;;;8.80;4.32;;;13.60;63.50;;;;;;4936689;29;20411;-85
2021/04/18 11:39:36;;;;;;;7.90;3.72;;;13.60;62.50;;;;;;4937674;28;20142;-86
2021/04/18 11:42:02;;;;;;;9.38;4.13;;;13.60;63.30;;;;;;4942005;29;20027;-85
2021/04/18 11:44:27;;;;;;;8.77;4.47;;;13.70;64.40;;;;;;4939938;29;20131;-86
2021/04/18 11:46:53;;;;;;;9.35;4.35;;;13.80;62.90;;;;;;4938341;29;20039;-86
2021/04/18 11:49:19;;;;;;;7.80;4.18;;;13.90;63.10;;;;;;4937867;29;20105;-86
2021/04/18 11:51:45;;;;;;;7.13;4.25;;;13.90;63.30;;;;;;4946573;28;20023;-86
2021/04/18 11:54:10;;;;;;;5.90;3.63;;;14.00;63.20;;;;;;4938518;28;20098;-85
2021/04/18 11:56:36;;;;;;;8.43;4.15;;;14.00;61.30;;;;;;4934183;28;20027;-86
2021/04/18 11:59:03;;;;;;;9.50;4.63;;;14.10;62.10;;;;;;4936464;28;20035;-86
2021/04/18 12:01:28;;;;;;;9.88;5.35;;;14.10;62.20;;;;;;4946525;28;20468;-85
2021/04/18 12:03:54;;;;;;;8.48;4.68;;;14.30;61.90;;;;;;4932319;28;20039;-90
2021/04/18 12:06:20;;;;;;;9.57;4.72;;;14.40;61.80;;;;;;4934719;28;20034;-85
2021/04/18 12:08:45;;;;;;;7.88;4.85;;;14.50;61.10;;;;;;4946705;29;20047;-85
2021/04/18 12:11:11;;;;;;;6.55;4.55;;;14.50;61.40;;;;;;4964280;28;20082;-86
2021/04/18 12:13:37;;;;;;;7.90;3.75;;;14.60;61.50;;;;;;4965692;29;20062;-85
2021/04/18 12:16:03;;;;;;;8.98;4.43;;;14.70;60.30;;;;;;4959406;28;20475;-86
2021/04/18 12:18:29;;;;;;;7.18;3.78;;;14.70;59.80;;;;;;4954640;29;20440;-85
2021/04/18 12:20:54;;;;;;;7.70;3.78;;;14.70;59.20;;;;;;4959212;28;20091;-85
2021/04/18 12:23:20;;;;;;;8.35;3.63;;;14.70;58.80;;;;;;4964630;29;20072;-85
2021/04/18 12:25:46;;;;;;;8.70;3.60;;;14.80;58.80;;;;;;4960313;28;20031;-86
2021/04/18 12:28:11;;;;;;;6.35;3.60;;;15.10;57.50;;;;;;4956861;29;20048;-85
2021/04/18 12:30:38;;;;;;;6.90;3.40;;;15.20;54.60;;;;;;4954238;28;20035;-85
2021/04/18 12:33:04;;;;;;;8.32;3.38;;;15.20;55.20;;;;;;4955928;28;20114;-85
2021/04/18 12:35:30;;;;;;;6.85;4.03;;;15.30;55.00;;;;;;4955228;28;20463;-86
2021/04/18 12:37:55;;;;;;;7.57;3.53;;;15.50;54.10;;;;;;4959511;28;20039;-86
2021/04/18 12:40:21;;;;;;;7.57;3.83;;;15.70;54.80;;;;;;4955784;28;20039;-85
2021/04/18 12:42:47;;;;;;;8.85;3.50;;;15.70;54.80;;;;;;4957753;29;20096;-85
2021/04/18 12:45:13;;;;;;;10.80;4.60;;;15.80;54.50;;;;;;4953677;28;20023;-85
2021/04/18 12:47:39;;;;;;;7.25;3.58;;;16.10;53.50;;;;;;4952066;28;20039;-86